createdAt,value
2022-11-22T00:00:07.987Z,11.50
2022-11-22T00:02:09.516Z,11.95
2022-11-22T00:04:10.982Z,12.05
2022-11-22T00:06:12.424Z,11.68
2022-11-22T00:08:13.993Z,12.00
2022-11-22T00:10:15.963Z,12.65
2022-11-22T00:12:17.583Z,11.23
2022-11-22T00:14:19.037Z,11.38
2022-11-22T00:16:20.468Z,11.50
2022-11-22T00:18:21.910Z,11.35
2022-11-22T00:20:23.406Z,11.18
2022-11-22T00:22:24.941Z,11.45
2022-11-22T00:24:26.357Z,11.38
2022-11-22T00:26:27.862Z,11.50
2022-11-22T00:28:29.332Z,11.25
2022-11-22T00:30:30.765Z,11.98
2022-11-22T00:32:32.327Z,11.45
2022-11-22T00:34:33.849Z,11.07
2022-11-22T00:36:35.327Z,12.68
2022-11-22T00:38:36.859Z,12.18
2022-11-22T00:40:38.288Z,12.32
2022-11-22T00:42:39.752Z,12.07
2022-11-22T00:44:41.191Z,11.88
2022-11-22T00:46:42.797Z,11.35
2022-11-22T00:48:44.292Z,12.10
2022-11-22T00:50:49.012Z,12.13
2022-11-22T00:52:50.466Z,11.38
2022-11-22T00:54:54.971Z,12.27
2022-11-22T00:56:56.745Z,11.85
2022-11-22T00:58:58.267Z,11.95
2022-11-22T01:00:59.787Z,12.80
2022-11-22T01:03:01.251Z,12.45
2022-11-22T01:05:03.313Z,12.27
2022-11-22T01:07:04.901Z,11.70
2022-11-22T01:09:06.411Z,12.35
2022-11-22T01:11:07.960Z,13.70
2022-11-22T01:13:10.057Z,12.57
2022-11-22T01:15:11.888Z,13.43
2022-11-22T01:17:13.449Z,14.48
2022-11-22T01:19:15.373Z,14.15
2022-11-22T01:21:16.809Z,13.50
2022-11-22T01:23:18.277Z,14.18
2022-11-22T01:25:19.767Z,13.73
2022-11-22T01:27:21.355Z,14.45
2022-11-22T01:29:22.810Z,14.63
2022-11-22T01:31:24.492Z,14.60
2022-11-22T01:33:26.049Z,13.25
2022-11-22T01:35:27.519Z,15.32
2022-11-22T01:37:28.950Z,13.63
2022-11-22T01:39:30.491Z,15.85
2022-11-22T01:41:32.091Z,14.68
2022-11-22T01:43:33.551Z,14.95
2022-11-22T01:45:41.251Z,15.25
2022-11-22T01:47:42.869Z,15.05
2022-11-22T01:50:06.532Z,15.07
2022-11-22T01:52:14.131Z,15.10
2022-11-22T01:54:20.765Z,15.50
2022-11-22T01:56:23.627Z,14.85
2022-11-22T01:58:27.504Z,15.43
2022-11-22T02:00:28.962Z,16.30
2022-11-22T02:02:30.712Z,15.50
2022-11-22T02:04:33.713Z,15.55
2022-11-22T02:07:04.446Z,14.48
2022-11-22T02:09:14.825Z,16.13
2022-11-22T02:11:18.407Z,15.70
2022-11-22T02:13:22.460Z,15.75
2022-11-22T02:15:23.902Z,15.77
2022-11-22T02:17:26.760Z,15.68
2022-11-22T02:19:41.739Z,16.60
2022-11-22T02:21:49.637Z,16.20
2022-11-22T02:24:00.733Z,17.15
2022-11-22T02:26:02.864Z,16.20
2022-11-22T02:28:05.223Z,17.15
2022-11-22T02:30:07.624Z,18.35
2022-11-22T02:32:09.080Z,18.05
2022-11-22T02:34:12.778Z,17.67
2022-11-22T02:36:14.251Z,18.33
2022-11-22T02:38:19.301Z,16.10
2022-11-22T02:40:22.115Z,17.15
2022-11-22T02:42:26.015Z,17.15
2022-11-22T02:44:27.726Z,19.27
2022-11-22T02:46:29.168Z,17.83
2022-11-22T02:48:30.637Z,19.00
2022-11-22T02:50:32.100Z,19.52
2022-11-22T02:52:33.623Z,19.27
2022-11-22T02:54:35.041Z,19.33
2022-11-22T02:56:36.494Z,19.15
2022-11-22T02:58:38.155Z,20.55
2022-11-22T03:00:39.748Z,19.30
2022-11-22T03:02:41.399Z,20.23
2022-11-22T03:04:42.817Z,19.83
2022-11-22T03:06:44.279Z,19.63
2022-11-22T03:08:53.201Z,21.15
2022-11-22T03:10:59.020Z,19.95
2022-11-22T03:13:00.499Z,20.50
2022-11-22T03:15:01.976Z,20.83
2022-11-22T03:17:03.450Z,20.55
2022-11-22T03:19:04.900Z,21.55
2022-11-22T03:21:09.519Z,21.17
2022-11-22T03:23:11.044Z,20.50
2022-11-22T03:25:12.498Z,22.23
2022-11-22T03:27:13.931Z,20.90
2022-11-22T03:29:16.977Z,20.50
2022-11-22T03:31:18.410Z,21.20
2022-11-22T03:33:19.880Z,19.95
2022-11-22T03:35:21.510Z,20.45
2022-11-22T03:37:23.016Z,20.77
2022-11-22T03:39:24.567Z,19.67
2022-11-22T03:41:26.056Z,22.38
2022-11-22T03:43:27.611Z,21.25
2022-11-22T03:45:29.622Z,20.75
2022-11-22T03:47:31.068Z,20.52
2022-11-22T03:49:32.803Z,21.30
2022-11-22T03:51:34.363Z,21.77
2022-11-22T03:53:35.860Z,20.90
2022-11-22T03:55:37.496Z,20.23
2022-11-22T03:57:38.954Z,20.88
2022-11-22T03:59:40.438Z,22.38
2022-11-22T04:01:41.928Z,20.33
2022-11-22T04:03:43.401Z,21.67
2022-11-22T04:05:45.660Z,20.85
2022-11-22T04:07:47.287Z,20.95
2022-11-22T04:09:48.810Z,20.27
2022-11-22T04:11:50.289Z,21.10
2022-11-22T04:14:10.121Z,21.73
2022-11-22T04:16:11.629Z,20.10
2022-11-22T04:18:13.957Z,19.60
2022-11-22T04:20:43.346Z,20.17
2022-11-22T04:22:44.802Z,19.73
2022-11-22T04:25:04.892Z,21.30
2022-11-22T04:27:06.405Z,19.20
2022-11-22T04:29:10.287Z,20.27
2022-11-22T04:31:30.759Z,19.85
2022-11-22T04:33:32.276Z,20.00
2022-11-22T04:35:33.785Z,20.00
2022-11-22T04:37:35.220Z,19.10
2022-11-22T04:39:36.690Z,19.30
2022-11-22T04:41:38.159Z,19.38
2022-11-22T04:43:58.178Z,19.08
2022-11-22T04:45:59.605Z,18.70
2022-11-22T04:48:01.127Z,18.17
2022-11-22T04:50:04.284Z,18.83
2022-11-22T04:52:24.514Z,18.65
2022-11-22T04:54:26.056Z,19.45
2022-11-22T04:56:27.511Z,18.85
2022-11-22T04:58:29.151Z,20.60
2022-11-22T05:00:31.906Z,18.90
2022-11-22T05:02:33.380Z,18.63
2022-11-22T05:04:34.863Z,18.75
2022-11-22T05:06:36.934Z,18.58
2022-11-22T05:08:38.368Z,18.65
2022-11-22T05:10:59.481Z,18.48
2022-11-22T05:13:00.918Z,18.27
2022-11-22T05:15:02.438Z,17.63
2022-11-22T05:17:03.948Z,18.83
2022-11-22T05:19:05.516Z,18.40
2022-11-22T05:21:12.785Z,16.42
2022-11-22T05:23:33.399Z,17.02
2022-11-22T05:25:34.848Z,18.77
2022-11-22T05:27:36.329Z,19.10
2022-11-22T05:29:37.780Z,18.08
2022-11-22T05:31:39.963Z,17.85
2022-11-22T05:33:43.145Z,16.88
2022-11-22T05:35:44.598Z,17.42
2022-11-22T05:37:46.063Z,17.25
2022-11-22T05:39:47.535Z,17.27
2022-11-22T05:41:55.952Z,17.50
2022-11-22T05:43:58.186Z,17.63
2022-11-22T05:46:11.343Z,17.33
2022-11-22T05:48:12.794Z,17.67
2022-11-22T05:50:14.247Z,17.80
2022-11-22T05:52:15.674Z,16.88
2022-11-22T05:54:17.214Z,18.05
2022-11-22T05:56:23.428Z,19.20
2022-11-22T05:58:24.883Z,17.40
2022-11-22T06:00:26.661Z,18.73
2022-11-22T06:02:28.169Z,18.25
2022-11-22T06:04:29.810Z,18.35
2022-11-22T06:06:31.339Z,17.98
2022-11-22T06:08:38.153Z,19.15
2022-11-22T06:10:39.662Z,17.48
2022-11-22T06:12:41.115Z,17.67
2022-11-22T06:14:43.651Z,18.42
2022-11-22T06:16:45.277Z,18.30
2022-11-22T06:18:46.915Z,17.90
2022-11-22T06:20:48.567Z,18.70
2022-11-22T06:22:50.004Z,17.75
2022-11-22T06:24:51.428Z,18.33
2022-11-22T06:26:52.884Z,18.35
2022-11-22T06:28:55.054Z,19.38
2022-11-22T06:31:04.559Z,17.65
2022-11-22T06:33:06.136Z,18.40
2022-11-22T06:35:07.934Z,17.13
2022-11-22T06:37:09.458Z,17.23
2022-11-22T06:39:10.964Z,17.92
2022-11-22T06:41:14.847Z,18.30
2022-11-22T06:43:16.282Z,17.38
2022-11-22T06:45:18.084Z,17.77
2022-11-22T06:47:19.577Z,18.30
2022-11-22T06:49:21.009Z,17.70
2022-11-22T06:51:28.584Z,17.77
2022-11-22T06:53:46.907Z,17.50
2022-11-22T06:55:50.932Z,17.45
2022-11-22T06:57:53.410Z,17.15
2022-11-22T06:59:54.929Z,18.02
2022-11-22T07:01:59.012Z,18.98
2022-11-22T07:04:05.138Z,18.08
2022-11-22T07:06:08.318Z,18.00
2022-11-22T07:08:13.785Z,18.27
2022-11-22T07:10:15.930Z,17.17
2022-11-22T07:12:17.366Z,17.92
2022-11-22T07:14:19.111Z,17.95
2022-11-22T07:16:21.826Z,18.02
2022-11-22T07:18:24.100Z,18.08
2022-11-22T07:20:25.584Z,18.65
2022-11-22T07:22:27.059Z,18.55
2022-11-22T07:24:28.772Z,18.58
2022-11-22T07:26:30.235Z,17.80
2022-11-22T07:28:31.881Z,18.65
2022-11-22T07:30:33.336Z,19.10
2022-11-22T07:32:34.827Z,17.85
2022-11-22T07:34:36.303Z,19.60
2022-11-22T07:36:37.831Z,20.38
2022-11-22T07:38:39.394Z,18.88
2022-11-22T07:40:40.829Z,19.80
2022-11-22T07:42:42.277Z,20.50
2022-11-22T07:44:43.704Z,19.88
2022-11-22T07:46:45.210Z,19.60
2022-11-22T07:48:48.317Z,19.90
2022-11-22T07:50:49.764Z,20.58
2022-11-22T07:52:58.342Z,21.50
2022-11-22T07:54:59.810Z,19.52
2022-11-22T07:57:01.237Z,19.92
2022-11-22T07:59:02.676Z,19.58
2022-11-22T08:01:09.404Z,19.30
2022-11-22T08:03:13.249Z,19.58
2022-11-22T08:05:19.105Z,19.58
2022-11-22T08:07:20.560Z,20.50
2022-11-22T08:09:21.988Z,20.23
2022-11-22T08:11:23.403Z,20.42
2022-11-22T08:13:25.146Z,20.85
2022-11-22T08:15:26.988Z,20.58
2022-11-22T08:17:28.393Z,21.13
2022-11-22T08:19:31.157Z,20.52
2022-11-22T08:21:32.719Z,21.25
2022-11-22T08:23:35.144Z,20.92
2022-11-22T08:25:36.625Z,20.50
2022-11-22T08:27:40.261Z,19.98
2022-11-22T08:29:41.665Z,20.30
2022-11-22T08:31:43.102Z,19.98
2022-11-22T08:33:44.666Z,19.75
2022-11-22T08:35:49.905Z,19.38
2022-11-22T08:37:55.533Z,19.88
2022-11-22T08:39:57.287Z,18.67
2022-11-22T08:41:58.878Z,20.23
2022-11-22T08:44:00.285Z,20.55
2022-11-22T08:46:02.251Z,19.60
2022-11-22T08:48:03.878Z,19.50
2022-11-22T08:50:05.907Z,20.38
2022-11-22T08:52:07.334Z,19.65
2022-11-22T08:54:08.722Z,20.17
2022-11-22T08:56:13.315Z,20.85
2022-11-22T08:58:14.900Z,19.63
2022-11-22T09:00:16.709Z,20.88
2022-11-22T09:02:18.136Z,19.77
2022-11-22T09:04:19.547Z,20.00
2022-11-22T09:08:47.244Z,18.08
2022-11-22T09:10:50.743Z,19.95
2022-11-22T09:12:52.167Z,19.00
2022-11-22T09:14:53.575Z,18.92
2022-11-22T09:16:55.064Z,18.95
2022-11-22T09:18:56.988Z,19.45
2022-11-22T09:21:03.394Z,20.05
2022-11-22T09:23:04.826Z,19.02
2022-11-22T09:25:06.592Z,18.95
2022-11-22T09:27:08.031Z,19.15
2022-11-22T09:29:09.470Z,20.25
2022-11-22T09:31:16.890Z,18.90
2022-11-22T09:33:18.645Z,19.35
2022-11-22T09:35:20.258Z,19.13
2022-11-22T09:37:21.661Z,19.00
2022-11-22T09:39:23.095Z,18.27
2022-11-22T09:41:55.729Z,18.63
2022-11-22T09:44:15.575Z,17.80
2022-11-22T09:46:40.941Z,17.60
2022-11-22T09:48:59.943Z,17.48
2022-11-22T09:51:17.218Z,19.77
2022-11-22T09:53:25.577Z,18.35
2022-11-22T09:55:39.541Z,19.52
2022-11-22T09:57:47.799Z,17.15
2022-11-22T09:59:58.861Z,17.30
2022-11-22T10:02:18.867Z,18.25
2022-11-22T10:04:37.578Z,18.15
2022-11-22T10:06:45.788Z,18.25
2022-11-22T10:08:59.302Z,17.67
2022-11-22T10:11:03.213Z,19.50
2022-11-22T10:13:29.332Z,18.40
2022-11-22T10:15:53.073Z,16.95
2022-11-22T10:17:59.185Z,18.05
2022-11-22T10:20:03.573Z,18.73
2022-11-22T10:22:12.799Z,18.45
2022-11-22T10:24:16.427Z,18.50
2022-11-22T10:26:26.563Z,19.63
2022-11-22T10:28:35.429Z,18.75
2022-11-22T10:33:04.543Z,18.13
2022-11-22T10:35:23.717Z,18.35
2022-11-22T10:37:37.047Z,17.95
2022-11-22T10:40:00.006Z,19.75
2022-11-22T10:42:19.622Z,17.92
2022-11-22T10:44:35.658Z,21.33
2022-11-22T10:46:40.056Z,21.25
2022-11-22T10:48:47.565Z,20.75
2022-11-22T10:51:08.828Z,21.58
2022-11-22T10:53:24.514Z,21.45
2022-11-22T10:55:53.708Z,21.55
2022-11-22T10:58:15.915Z,17.63
2022-11-22T11:00:24.452Z,15.10
2022-11-22T11:02:47.519Z,15.02
2022-11-22T11:04:50.883Z,12.52
2022-11-22T11:07:11.859Z,12.60
2022-11-22T11:10:09.032Z,12.20
2022-11-22T11:11:46.003Z,11.90
2022-11-22T11:13:52.723Z,12.98
2022-11-22T11:15:57.688Z,10.73
2022-11-22T11:18:02.663Z,10.43
2022-11-22T11:20:13.945Z,9.68
2022-11-22T11:22:50.458Z,9.52
2022-11-22T11:24:47.058Z,9.15
2022-11-22T11:26:54.390Z,9.32
2022-11-22T11:29:17.735Z,9.73
2022-11-22T11:31:21.614Z,9.75
2022-11-22T11:33:31.534Z,8.98
2022-11-22T11:35:34.348Z,9.57
2022-11-22T11:37:39.073Z,9.50
2022-11-22T11:39:46.635Z,10.00
2022-11-22T11:41:48.404Z,9.63
2022-11-22T11:43:52.440Z,9.38
2022-11-22T11:45:53.916Z,11.00
2022-11-22T11:47:55.728Z,9.93
2022-11-22T11:49:57.140Z,10.15
2022-11-22T11:52:01.561Z,9.63
2022-11-22T11:54:11.609Z,9.70
2022-11-22T11:56:32.132Z,10.38
2022-11-22T11:58:33.632Z,9.48
2022-11-22T12:00:38.409Z,9.55
2022-11-22T12:02:46.360Z,9.85
2022-11-22T12:04:53.010Z,10.75
2022-11-22T12:07:16.186Z,9.57
2022-11-22T12:09:29.109Z,9.70
2022-11-22T12:11:42.762Z,9.80
2022-11-22T12:14:18.551Z,9.93
2022-11-22T12:16:28.808Z,9.25
2022-11-22T12:18:44.141Z,8.93
2022-11-22T12:21:14.784Z,8.50
2022-11-22T12:23:50.749Z,9.23
2022-11-22T12:25:56.478Z,8.57
2022-11-22T12:28:00.350Z,9.32
2022-11-22T12:30:01.902Z,10.15
2022-11-22T12:32:28.378Z,9.68
2022-11-22T12:34:35.426Z,9.32
2022-11-22T12:36:55.608Z,9.90
2022-11-22T12:39:01.889Z,9.18
2022-11-22T12:41:09.734Z,10.15
2022-11-22T12:43:23.416Z,9.57
2022-11-22T12:45:27.608Z,9.13
2022-11-22T12:47:35.559Z,9.48
2022-11-22T12:49:42.988Z,9.63
2022-11-22T12:51:50.887Z,9.93
2022-11-22T12:53:55.689Z,9.20
2022-11-22T12:56:35.341Z,9.15
2022-11-22T12:59:15.603Z,9.95
2022-11-22T13:01:24.986Z,10.10
2022-11-22T13:03:33.182Z,9.98
2022-11-22T13:05:48.507Z,9.95
2022-11-22T13:07:53.982Z,10.15
2022-11-22T13:10:03.032Z,9.68
2022-11-22T13:12:09.955Z,10.00
2022-11-22T13:14:20.984Z,10.15
2022-11-22T13:16:22.878Z,9.65
2022-11-22T13:18:36.353Z,9.18
2022-11-22T13:20:45.084Z,8.60
2022-11-22T13:23:12.683Z,9.15
2022-11-22T13:25:45.469Z,9.38
2022-11-22T13:27:50.345Z,8.95
2022-11-22T13:29:56.427Z,9.40
2022-11-22T13:32:15.437Z,9.55
2022-11-22T13:34:26.393Z,9.38
2022-11-22T13:36:27.794Z,8.65
2022-11-22T13:38:29.364Z,9.00
2022-11-22T13:40:42.469Z,9.20
2022-11-22T13:42:43.984Z,9.25
2022-11-22T13:44:57.471Z,8.77
2022-11-22T13:47:12.190Z,9.35
2022-11-22T13:49:37.410Z,9.40
2022-11-22T13:51:57.637Z,8.73
2022-11-22T13:54:33.194Z,10.02
2022-11-22T13:56:40.727Z,8.45
2022-11-22T13:58:50.981Z,8.45
2022-11-22T14:00:57.364Z,9.43
2022-11-22T14:03:21.115Z,8.75
2022-11-22T14:05:40.979Z,9.10
2022-11-22T14:07:44.792Z,8.82
2022-11-22T14:09:52.382Z,8.90
2022-11-22T14:11:56.750Z,9.77
2022-11-22T14:14:01.129Z,8.73
2022-11-22T14:16:20.945Z,9.63
2022-11-22T14:18:43.348Z,8.50
2022-11-22T14:21:02.216Z,8.95
2022-11-22T14:23:24.752Z,9.18
2022-11-22T14:25:43.727Z,9.25
2022-11-22T14:28:08.327Z,9.52
2022-11-22T14:30:19.769Z,9.25
2022-11-22T14:32:23.758Z,10.38
2022-11-22T14:34:27.917Z,9.57
2022-11-22T14:36:29.439Z,9.48
2022-11-22T14:38:35.900Z,9.43
2022-11-22T14:40:39.683Z,8.82
2022-11-22T14:42:43.435Z,9.48
2022-11-22T14:44:46.755Z,9.98
2022-11-22T14:47:17.782Z,9.52
2022-11-22T14:49:48.347Z,9.95
2022-11-22T14:51:55.336Z,9.07
2022-11-22T14:54:00.690Z,8.98
2022-11-22T14:56:12.354Z,9.38
2022-11-22T14:58:20.441Z,9.10
2022-11-22T15:00:23.980Z,9.18
2022-11-22T15:03:00.703Z,9.38
2022-11-22T15:09:11.391Z,9.18
2022-11-22T15:09:12.523Z,9.27
2022-11-22T15:10:33.843Z,10.25
2022-11-22T15:12:47.268Z,10.02
2022-11-22T15:59:49.516Z,9.18
2022-11-22T16:01:53.991Z,9.05
2022-11-22T16:03:57.989Z,10.23
2022-11-22T16:06:08.156Z,10.60
2022-11-22T16:08:15.417Z,9.95
2022-11-22T16:10:24.449Z,10.63
2022-11-22T16:12:36.102Z,9.60
2022-11-22T16:14:47.821Z,9.38
2022-11-22T16:16:49.303Z,9.38
2022-11-22T16:18:53.083Z,9.82
2022-11-22T16:21:18.499Z,9.48
2022-11-22T16:23:25.943Z,9.82
2022-11-22T16:25:33.656Z,9.32
2022-11-22T16:27:35.377Z,9.85
2022-11-22T16:29:37.629Z,9.55
2022-11-22T16:31:40.062Z,9.20
2022-11-22T16:33:41.580Z,10.13
2022-11-22T16:35:43.010Z,9.93
2022-11-22T16:37:48.160Z,9.73
2022-11-22T16:39:49.845Z,9.90
2022-11-22T16:41:51.319Z,10.07
2022-11-22T16:44:00.188Z,10.23
2022-11-22T16:48:35.086Z,8.85
2022-11-22T16:50:38.929Z,9.80
2022-11-22T16:52:42.065Z,9.98
2022-11-22T16:54:43.709Z,9.73
2022-11-22T16:56:46.088Z,9.32
2022-11-22T16:58:48.748Z,9.75
2022-11-22T17:00:51.043Z,9.07
2022-11-22T17:02:52.468Z,9.60
2022-11-22T17:04:53.927Z,9.50
2022-11-22T17:06:55.346Z,9.15
2022-11-22T17:08:59.014Z,10.32
2022-11-22T17:11:00.461Z,10.30
2022-11-22T17:13:01.949Z,9.40
2022-11-22T17:15:03.785Z,9.45
2022-11-22T17:17:05.265Z,9.63
2022-11-22T17:19:14.495Z,9.90
2022-11-22T17:21:37.476Z,8.93
2022-11-22T17:23:39.708Z,9.70
2022-11-22T17:25:41.254Z,9.82
2022-11-22T17:27:42.674Z,10.88
2022-11-22T17:29:51.486Z,10.98
2022-11-22T17:31:53.048Z,12.35
2022-11-22T17:33:56.924Z,14.43
2022-11-22T17:35:58.381Z,27.38
2022-11-22T17:37:59.866Z,11.32
2022-11-22T17:40:01.436Z,14.07
2022-11-22T17:42:02.897Z,14.63
2022-11-22T17:44:05.240Z,10.80
2022-11-22T17:46:06.715Z,10.18
2022-11-22T17:48:11.830Z,10.40
2022-11-22T17:50:13.758Z,10.13
2022-11-22T17:52:15.185Z,11.30
2022-11-22T17:54:16.622Z,10.57
2022-11-22T17:56:18.589Z,10.13
2022-11-22T17:58:20.020Z,10.30
2022-11-22T18:00:25.571Z,10.60
2022-11-22T18:02:31.250Z,10.50
2022-11-22T18:04:32.868Z,10.52
2022-11-22T18:06:34.723Z,10.18
2022-11-22T18:08:36.672Z,10.52
2022-11-22T18:10:38.380Z,11.52
2022-11-22T18:12:42.453Z,10.20
2022-11-22T18:14:48.632Z,11.05
2022-11-22T18:16:50.081Z,10.70
2022-11-22T18:18:58.915Z,11.23
2022-11-22T18:21:00.540Z,10.75
2022-11-22T18:23:01.960Z,10.88
2022-11-22T18:25:05.194Z,11.13
2022-11-22T18:27:06.705Z,11.55
2022-11-22T18:31:50.735Z,11.07
2022-11-22T18:33:54.102Z,11.57
2022-11-22T18:36:06.754Z,11.15
2022-11-22T18:38:08.202Z,11.93
2022-11-22T18:40:10.219Z,11.65
2022-11-22T18:42:14.332Z,11.48
2022-11-22T18:44:15.803Z,11.20
2022-11-22T18:46:17.243Z,11.95
2022-11-22T18:48:18.742Z,11.45
2022-11-22T18:50:20.182Z,11.65
2022-11-22T18:52:23.324Z,11.70
2022-11-22T18:54:24.887Z,11.52
2022-11-22T18:56:26.882Z,11.25
2022-11-22T18:58:32.135Z,12.07
2022-11-22T19:00:36.124Z,12.48
2022-11-22T19:02:37.587Z,11.45
2022-11-22T19:04:39.419Z,11.25
2022-11-22T19:06:41.966Z,11.82
2022-11-22T19:08:45.584Z,12.10
2022-11-22T19:10:56.788Z,12.23
2022-11-22T19:12:58.219Z,11.63
2022-11-22T19:14:59.854Z,12.05
2022-11-22T19:17:01.374Z,12.68
2022-11-22T19:19:02.999Z,12.30
2022-11-22T19:21:05.863Z,11.82
2022-11-22T19:23:07.314Z,11.15
2022-11-22T19:25:08.974Z,11.57
2022-11-22T19:27:10.714Z,11.45
2022-11-22T19:29:12.147Z,11.52
2022-11-22T19:31:18.750Z,11.80
2022-11-22T19:33:22.936Z,11.32
2022-11-22T19:35:24.369Z,11.98
2022-11-22T19:37:25.805Z,13.00
2022-11-22T19:39:27.260Z,12.35
2022-11-22T19:41:28.846Z,11.23
2022-11-22T19:43:30.299Z,11.80
2022-11-22T19:45:31.713Z,11.27
2022-11-22T19:47:33.264Z,11.38
2022-11-22T19:49:34.750Z,11.10
2022-11-22T19:51:36.958Z,10.57
2022-11-22T19:53:39.299Z,10.32
2022-11-22T19:55:45.312Z,11.55
2022-11-22T19:57:47.176Z,11.43
2022-11-22T19:59:49.099Z,10.10
2022-11-22T20:01:50.529Z,10.77
2022-11-22T20:03:54.227Z,10.38
2022-11-22T20:05:59.596Z,10.25
2022-11-22T20:08:01.033Z,10.38
2022-11-22T20:10:04.168Z,10.82
2022-11-22T20:12:05.658Z,10.07
2022-11-22T20:14:07.780Z,9.73
2022-11-22T20:16:15.784Z,10.40
2022-11-22T20:18:17.237Z,10.93
2022-11-22T20:20:19.010Z,10.70
2022-11-22T20:22:20.472Z,11.00
2022-11-22T20:24:21.924Z,10.40
2022-11-22T20:26:25.127Z,10.30
2022-11-22T20:28:26.558Z,10.05
2022-11-22T20:30:28.275Z,10.43
2022-11-22T20:32:29.744Z,10.00
2022-11-22T20:34:33.652Z,9.32
2022-11-22T20:36:35.812Z,9.85
2022-11-22T20:38:39.022Z,9.93
2022-11-22T20:40:40.453Z,10.18
2022-11-22T20:42:42.134Z,10.20
2022-11-22T20:44:43.751Z,10.32
2022-11-22T20:46:45.385Z,9.18
2022-11-22T20:48:48.157Z,8.90
2022-11-22T20:50:52.181Z,9.00
2022-11-22T20:52:53.674Z,10.15
2022-11-22T20:54:57.105Z,9.82
2022-11-22T20:57:00.594Z,9.23
2022-11-22T20:59:02.092Z,9.38
2022-11-22T21:01:08.885Z,9.32
2022-11-22T21:03:11.805Z,9.35
2022-11-22T21:05:13.392Z,8.45
2022-11-22T21:07:14.865Z,8.60
2022-11-22T21:09:16.377Z,9.20
2022-11-22T21:11:29.273Z,8.70
2022-11-22T21:13:31.236Z,8.93
2022-11-22T21:15:32.698Z,8.65
2022-11-22T21:17:46.007Z,8.27
2022-11-22T21:19:51.886Z,8.33
2022-11-22T21:21:53.325Z,8.30
2022-11-22T21:23:56.434Z,8.75
2022-11-22T21:25:58.199Z,7.50
2022-11-22T21:27:59.619Z,8.57
2022-11-22T21:30:01.071Z,7.90
2022-11-22T21:32:02.572Z,7.88
2022-11-22T21:34:04.042Z,7.70
2022-11-22T21:36:07.112Z,7.68
2022-11-22T21:38:08.549Z,7.80
2022-11-22T21:40:10.731Z,7.38
2022-11-22T21:42:12.161Z,7.63
2022-11-22T21:44:13.989Z,7.80
2022-11-22T21:46:15.811Z,7.88
2022-11-22T21:48:18.395Z,7.53
2022-11-22T21:50:19.954Z,8.18
2022-11-22T21:52:21.388Z,7.45
2022-11-22T21:54:22.866Z,7.47
2022-11-22T21:56:24.782Z,7.40
2022-11-22T21:58:26.348Z,6.55
2022-11-22T22:00:28.124Z,6.85
2022-11-22T22:02:30.648Z,6.43
2022-11-22T22:04:32.088Z,7.10
2022-11-22T22:06:33.571Z,7.65
2022-11-22T22:08:35.317Z,6.40
2022-11-22T22:10:36.840Z,6.65
2022-11-22T22:12:39.554Z,6.68
2022-11-22T22:14:41.008Z,6.53
2022-11-22T22:16:42.563Z,5.78
2022-11-22T22:18:44.962Z,6.15
2022-11-22T22:20:46.396Z,5.72
2022-11-22T22:22:48.777Z,5.68
2022-11-22T22:24:50.246Z,5.78
2022-11-22T22:26:51.710Z,5.53
2022-11-22T22:28:53.389Z,5.57
2022-11-22T22:31:22.670Z,6.00
2022-11-22T22:33:24.224Z,5.60
2022-11-22T22:35:25.692Z,5.35
2022-11-22T22:37:27.277Z,5.88
2022-11-22T22:39:29.246Z,5.30
2022-11-22T22:41:31.295Z,5.60
2022-11-22T22:43:35.810Z,5.47
2022-11-22T22:45:37.285Z,6.03
2022-11-22T22:47:38.705Z,5.10
2022-11-22T22:49:40.157Z,4.90
2022-11-22T22:51:41.650Z,4.75
2022-11-22T22:53:44.314Z,4.47
2022-11-22T22:55:54.127Z,5.03
2022-11-22T22:57:57.459Z,4.95
2022-11-22T22:59:58.987Z,4.10
2022-11-22T23:02:00.497Z,4.20
2022-11-22T23:04:02.543Z,5.10
2022-11-22T23:06:09.079Z,4.18
2022-11-22T23:08:10.872Z,4.25
2022-11-22T23:10:12.364Z,4.65
2022-11-22T23:12:13.850Z,4.55
2022-11-22T23:14:18.638Z,4.50
2022-11-22T23:16:20.112Z,4.10
2022-11-22T23:18:21.555Z,4.15
2022-11-22T23:20:24.988Z,3.83
2022-11-22T23:22:26.452Z,4.22
2022-11-22T23:24:32.688Z,4.45
2022-11-22T23:26:34.424Z,4.00
2022-11-22T23:28:36.499Z,3.83
2022-11-22T23:30:37.923Z,3.65
2022-11-22T23:32:39.371Z,4.18
2022-11-22T23:34:40.807Z,4.25
2022-11-22T23:36:42.272Z,3.75
2022-11-22T23:38:44.107Z,4.05
2022-11-22T23:40:52.791Z,3.88
2022-11-22T23:42:58.192Z,4.03
2022-11-22T23:44:59.704Z,3.08
2022-11-22T23:47:01.144Z,4.22
2022-11-22T23:49:03.687Z,4.18
2022-11-22T23:51:05.257Z,3.40
2022-11-22T23:53:06.743Z,3.20
2022-11-22T23:55:08.231Z,3.38
2022-11-22T23:57:09.665Z,3.35
2022-11-22T23:59:11.115Z,3.67
